sensor_id;sensor_type;location;lat;lon;timestamp;temperature;humidity
20422;DHT22;10370;53.102;18.034;2023-06-10T00:01:00;19.40;99.90
20422;DHT22;10370;53.102;18.034;2023-06-10T00:06:23;19.40;99.90
20422;DHT22;10370;53.102;18.034;2023-06-10T00:11:46;19.40;99.90
20422;DHT22;10370;53.102;18.034;2023-06-10T00:17:09;19.20;99.90
20422;DHT22;10370;53.102;18.034;2023-06-10T00:22:32;19.20;99.90
20422;DHT22;10370;53.102;18.034;2023-06-10T00:27:55;19.10;99.90
20422;DHT22;10370;53.102;18.034;2023-06-10T00:33:17;19.10;99.90
20422;DHT22;10370;53.102;18.034;2023-06-10T00:38:40;19.10;99.90
20422;DHT22;10370;53.102;18.034;2023-06-10T00:44:03;19.10;99.90
20422;DHT22;10370;53.102;18.034;2023-06-10T00:49:25;19.10;99.90
20422;DHT22;10370;53.102;18.034;2023-06-10T00:54:48;19.10;99.90
20422;DHT22;10370;53.102;18.034;2023-06-10T01:06:09;19.10;99.90
20422;DHT22;10370;53.102;18.034;2023-06-10T01:12:05;19.00;99.90
20422;DHT22;10370;53.102;18.034;2023-06-10T01:17:32;19.00;99.90
20422;DHT22;10370;53.102;18.034;2023-06-10T01:22:55;19.00;99.90
20422;DHT22;10370;53.102;18.034;2023-06-10T01:28:38;19.00;99.90
20422;DHT22;10370;53.102;18.034;2023-06-10T01:34:08;19.00;99.90
20422;DHT22;10370;53.102;18.034;2023-06-10T01:39:32;18.90;99.90
20422;DHT22;10370;53.102;18.034;2023-06-10T01:44:54;18.90;99.90
20422;DHT22;10370;53.102;18.034;2023-06-10T01:50:17;18.90;99.90
20422;DHT22;10370;53.102;18.034;2023-06-10T01:55:39;18.90;99.90
20422;DHT22;10370;53.102;18.034;2023-06-10T02:01:02;18.80;99.90
20422;DHT22;10370;53.102;18.034;2023-06-10T02:06:24;18.80;99.90
20422;DHT22;10370;53.102;18.034;2023-06-10T02:11:47;18.70;99.90
20422;DHT22;10370;53.102;18.034;2023-06-10T02:17:09;18.70;99.90
20422;DHT22;10370;53.102;18.034;2023-06-10T02:22:34;18.60;99.90
20422;DHT22;10370;53.102;18.034;2023-06-10T02:27:57;18.50;99.90
20422;DHT22;10370;53.102;18.034;2023-06-10T02:33:19;18.50;99.90
20422;DHT22;10370;53.102;18.034;2023-06-10T02:38:42;18.40;99.90
20422;DHT22;10370;53.102;18.034;2023-06-10T02:44:04;18.40;99.90
20422;DHT22;10370;53.102;18.034;2023-06-10T02:49:27;18.40;99.90
20422;DHT22;10370;53.102;18.034;2023-06-10T02:54:52;18.50;99.90
20422;DHT22;10370;53.102;18.034;2023-06-10T03:00:15;18.50;99.90
20422;DHT22;10370;53.102;18.034;2023-06-10T03:05:38;18.40;99.90
20422;DHT22;10370;53.102;18.034;2023-06-10T03:11:00;18.40;99.90
20422;DHT22;10370;53.102;18.034;2023-06-10T03:16:23;18.30;99.90
20422;DHT22;10370;53.102;18.034;2023-06-10T03:21:57;18.20;99.90
20422;DHT22;10370;53.102;18.034;2023-06-10T03:27:20;18.20;99.90
20422;DHT22;10370;53.102;18.034;2023-06-10T03:32:42;18.10;99.90
20422;DHT22;10370;53.102;18.034;2023-06-10T03:38:05;18.10;99.90
20422;DHT22;10370;53.102;18.034;2023-06-10T03:43:28;18.20;99.90
20422;DHT22;10370;53.102;18.034;2023-06-10T03:48:50;18.20;99.90
20422;DHT22;10370;53.102;18.034;2023-06-10T03:54:13;18.40;99.90
20422;DHT22;10370;53.102;18.034;2023-06-10T03:59:35;18.50;99.90
20422;DHT22;10370;53.102;18.034;2023-06-10T04:04:58;18.70;99.90
20422;DHT22;10370;53.102;18.034;2023-06-10T04:10:21;18.80;99.90
20422;DHT22;10370;53.102;18.034;2023-06-10T04:15:43;18.70;99.90
20422;DHT22;10370;53.102;18.034;2023-06-10T04:21:06;18.60;99.90
20422;DHT22;10370;53.102;18.034;2023-06-10T04:26:28;18.50;99.90
20422;DHT22;10370;53.102;18.034;2023-06-10T04:31:51;18.80;99.90
20422;DHT22;10370;53.102;18.034;2023-06-10T04:37:13;19.20;99.90
20422;DHT22;10370;53.102;18.034;2023-06-10T04:42:37;19.60;99.90
20422;DHT22;10370;53.102;18.034;2023-06-10T04:47:59;20.10;99.90
20422;DHT22;10370;53.102;18.034;2023-06-10T04:53:22;20.00;99.90
20422;DHT22;10370;53.102;18.034;2023-06-10T04:58:45;20.30;99.90
20422;DHT22;10370;53.102;18.034;2023-06-10T05:04:08;21.10;99.90
20422;DHT22;10370;53.102;18.034;2023-06-10T05:09:31;21.60;99.90
20422;DHT22;10370;53.102;18.034;2023-06-10T05:14:55;21.10;99.90
20422;DHT22;10370;53.102;18.034;2023-06-10T05:20:18;20.30;99.90
20422;DHT22;10370;53.102;18.034;2023-06-10T05:25:40;19.80;99.90
20422;DHT22;10370;53.102;18.034;2023-06-10T05:31:04;19.80;99.90
20422;DHT22;10370;53.102;18.034;2023-06-10T05:36:26;19.50;99.90
20422;DHT22;10370;53.102;18.034;2023-06-10T05:41:49;19.40;99.90
20422;DHT22;10370;53.102;18.034;2023-06-10T05:47:12;19.30;99.90
20422;DHT22;10370;53.102;18.034;2023-06-10T05:52:35;19.30;99.90
20422;DHT22;10370;53.102;18.034;2023-06-10T05:57:59;19.20;99.90
20422;DHT22;10370;53.102;18.034;2023-06-10T06:03:24;19.20;99.90
20422;DHT22;10370;53.102;18.034;2023-06-10T06:08:49;19.20;99.90
20422;DHT22;10370;53.102;18.034;2023-06-10T06:14:12;19.10;99.90
20422;DHT22;10370;53.102;18.034;2023-06-10T06:19:35;19.30;99.90
20422;DHT22;10370;53.102;18.034;2023-06-10T06:24:57;19.40;99.90
20422;DHT22;10370;53.102;18.034;2023-06-10T06:30:20;19.40;99.90
20422;DHT22;10370;53.102;18.034;2023-06-10T06:35:42;19.40;99.90
20422;DHT22;10370;53.102;18.034;2023-06-10T06:41:05;19.80;99.90
20422;DHT22;10370;53.102;18.034;2023-06-10T06:46:28;20.00;99.90
20422;DHT22;10370;53.102;18.034;2023-06-10T06:51:51;20.70;99.90
20422;DHT22;10370;53.102;18.034;2023-06-10T06:57:13;20.80;99.90
20422;DHT22;10370;53.102;18.034;2023-06-10T07:02:36;21.30;99.90
20422;DHT22;10370;53.102;18.034;2023-06-10T07:07:59;21.60;99.90
20422;DHT22;10370;53.102;18.034;2023-06-10T07:13:21;21.90;99.90
20422;DHT22;10370;53.102;18.034;2023-06-10T07:18:44;21.70;99.90
20422;DHT22;10370;53.102;18.034;2023-06-10T07:24:07;21.90;99.90
20422;DHT22;10370;53.102;18.034;2023-06-10T07:29:29;22.00;99.10
20422;DHT22;10370;53.102;18.034;2023-06-10T07:34:52;22.20;99.20
20422;DHT22;10370;53.102;18.034;2023-06-10T07:40:15;21.70;98.40
20422;DHT22;10370;53.102;18.034;2023-06-10T07:45:40;22.00;98.90
20422;DHT22;10370;53.102;18.034;2023-06-10T07:51:02;22.20;98.60
20422;DHT22;10370;53.102;18.034;2023-06-10T07:56:25;22.20;98.20
20422;DHT22;10370;53.102;18.034;2023-06-10T08:01:48;22.50;97.20
20422;DHT22;10370;53.102;18.034;2023-06-10T08:07:11;22.40;97.70
20422;DHT22;10370;53.102;18.034;2023-06-10T08:12:34;22.40;97.30
20422;DHT22;10370;53.102;18.034;2023-06-10T08:17:57;22.30;96.50
20422;DHT22;10370;53.102;18.034;2023-06-10T08:23:20;22.60;97.20
20422;DHT22;10370;53.102;18.034;2023-06-10T08:28:42;22.90;97.10
20422;DHT22;10370;53.102;18.034;2023-06-10T08:34:05;22.90;95.80
20422;DHT22;10370;53.102;18.034;2023-06-10T08:39:27;22.80;94.90
20422;DHT22;10370;53.102;18.034;2023-06-10T08:44:55;23.00;95.80
20422;DHT22;10370;53.102;18.034;2023-06-10T08:50:18;23.40;94.20
20422;DHT22;10370;53.102;18.034;2023-06-10T08:55:42;23.60;94.10
20422;DHT22;10370;53.102;18.034;2023-06-10T09:01:06;23.50;92.80
20422;DHT22;10370;53.102;18.034;2023-06-10T09:06:29;23.60;91.70
20422;DHT22;10370;53.102;18.034;2023-06-10T09:11:53;23.40;91.70
20422;DHT22;10370;53.102;18.034;2023-06-10T09:17:16;23.50;92.10
20422;DHT22;10370;53.102;18.034;2023-06-10T09:22:41;23.30;91.30
20422;DHT22;10370;53.102;18.034;2023-06-10T09:28:05;23.40;91.00
20422;DHT22;10370;53.102;18.034;2023-06-10T09:33:38;23.40;90.80
20422;DHT22;10370;53.102;18.034;2023-06-10T09:39:02;23.50;91.30
20422;DHT22;10370;53.102;18.034;2023-06-10T09:44:25;23.70;90.00
20422;DHT22;10370;53.102;18.034;2023-06-10T09:49:49;23.70;90.90
20422;DHT22;10370;53.102;18.034;2023-06-10T09:55:11;23.90;91.00
20422;DHT22;10370;53.102;18.034;2023-06-10T10:00:34;23.90;90.20
20422;DHT22;10370;53.102;18.034;2023-06-10T10:06:00;24.00;89.30
20422;DHT22;10370;53.102;18.034;2023-06-10T10:11:23;24.00;85.40
20422;DHT22;10370;53.102;18.034;2023-06-10T10:16:46;24.00;82.30
20422;DHT22;10370;53.102;18.034;2023-06-10T10:22:26;23.80;85.00
20422;DHT22;10370;53.102;18.034;2023-06-10T10:27:56;24.00;85.50
20422;DHT22;10370;53.102;18.034;2023-06-10T10:33:22;24.10;80.60
20422;DHT22;10370;53.102;18.034;2023-06-10T10:38:48;24.10;84.70
20422;DHT22;10370;53.102;18.034;2023-06-10T10:44:14;24.20;80.30
20422;DHT22;10370;53.102;18.034;2023-06-10T10:49:37;24.20;81.20
20422;DHT22;10370;53.102;18.034;2023-06-10T10:55:01;24.10;82.30
20422;DHT22;10370;53.102;18.034;2023-06-10T11:00:43;24.30;80.10
20422;DHT22;10370;53.102;18.034;2023-06-10T11:06:15;24.00;79.20
20422;DHT22;10370;53.102;18.034;2023-06-10T11:11:49;24.30;79.90
20422;DHT22;10370;53.102;18.034;2023-06-10T11:17:19;24.40;80.40
20422;DHT22;10370;53.102;18.034;2023-06-10T11:23:01;24.20;75.80
20422;DHT22;10370;53.102;18.034;2023-06-10T11:28:27;24.50;78.60
20422;DHT22;10370;53.102;18.034;2023-06-10T11:34:02;24.70;78.80
20422;DHT22;10370;53.102;18.034;2023-06-10T11:39:28;24.60;80.00
20422;DHT22;10370;53.102;18.034;2023-06-10T11:44:53;24.60;76.20
20422;DHT22;10370;53.102;18.034;2023-06-10T11:50:30;24.60;74.80
20422;DHT22;10370;53.102;18.034;2023-06-10T11:55:55;24.50;73.50
20422;DHT22;10370;53.102;18.034;2023-06-10T12:01:24;24.30;71.60
20422;DHT22;10370;53.102;18.034;2023-06-10T12:06:52;24.30;68.10
20422;DHT22;10370;53.102;18.034;2023-06-10T12:12:15;24.40;67.50
20422;DHT22;10370;53.102;18.034;2023-06-10T12:17:38;24.30;66.10
20422;DHT22;10370;53.102;18.034;2023-06-10T12:23:09;24.40;66.00
20422;DHT22;10370;53.102;18.034;2023-06-10T12:28:32;24.70;63.70
20422;DHT22;10370;53.102;18.034;2023-06-10T12:39:55;24.40;64.80
20422;DHT22;10370;53.102;18.034;2023-06-10T12:45:26;24.70;61.20
20422;DHT22;10370;53.102;18.034;2023-06-10T12:50:53;24.60;62.30
20422;DHT22;10370;53.102;18.034;2023-06-10T12:56:16;24.60;60.60
20422;DHT22;10370;53.102;18.034;2023-06-10T13:01:39;24.60;60.70
20422;DHT22;10370;53.102;18.034;2023-06-10T13:07:02;24.60;59.90
20422;DHT22;10370;53.102;18.034;2023-06-10T13:12:25;24.70;58.50
20422;DHT22;10370;53.102;18.034;2023-06-10T13:18:04;24.50;55.80
20422;DHT22;10370;53.102;18.034;2023-06-10T13:23:27;24.50;53.70
20422;DHT22;10370;53.102;18.034;2023-06-10T13:28:50;24.50;53.90
20422;DHT22;10370;53.102;18.034;2023-06-10T13:34:13;24.40;55.10
20422;DHT22;10370;53.102;18.034;2023-06-10T13:39:36;24.50;56.20
20422;DHT22;10370;53.102;18.034;2023-06-10T13:44:58;24.60;50.70
20422;DHT22;10370;53.102;18.034;2023-06-10T13:50:21;24.60;55.80
20422;DHT22;10370;53.102;18.034;2023-06-10T13:55:44;24.50;54.70
20422;DHT22;10370;53.102;18.034;2023-06-10T14:01:06;24.70;56.80
20422;DHT22;10370;53.102;18.034;2023-06-10T14:06:29;24.50;57.10
20422;DHT22;10370;53.102;18.034;2023-06-10T14:11:52;24.40;56.60
20422;DHT22;10370;53.102;18.034;2023-06-10T14:17:16;24.50;54.80
20422;DHT22;10370;53.102;18.034;2023-06-10T14:22:39;24.40;56.70
20422;DHT22;10370;53.102;18.034;2023-06-10T14:28:01;24.60;57.10
20422;DHT22;10370;53.102;18.034;2023-06-10T14:33:24;24.30;57.00
20422;DHT22;10370;53.102;18.034;2023-06-10T14:38:46;24.50;57.40
20422;DHT22;10370;53.102;18.034;2023-06-10T14:44:09;24.50;56.70
20422;DHT22;10370;53.102;18.034;2023-06-10T14:49:32;24.50;55.60
20422;DHT22;10370;53.102;18.034;2023-06-10T14:54:54;24.30;54.40
20422;DHT22;10370;53.102;18.034;2023-06-10T15:00:17;24.30;55.00
20422;DHT22;10370;53.102;18.034;2023-06-10T15:05:44;24.50;55.30
20422;DHT22;10370;53.102;18.034;2023-06-10T15:11:06;24.40;55.50
20422;DHT22;10370;53.102;18.034;2023-06-10T15:16:29;24.30;55.00
20422;DHT22;10370;53.102;18.034;2023-06-10T15:21:52;24.30;55.00
20422;DHT22;10370;53.102;18.034;2023-06-10T15:27:15;24.10;55.30
20422;DHT22;10370;53.102;18.034;2023-06-10T15:32:37;24.20;56.40
20422;DHT22;10370;53.102;18.034;2023-06-10T15:38:00;24.10;55.10
20422;DHT22;10370;53.102;18.034;2023-06-10T15:43:23;24.00;55.00
20422;DHT22;10370;53.102;18.034;2023-06-10T15:48:45;24.20;56.20
20422;DHT22;10370;53.102;18.034;2023-06-10T15:54:07;24.10;56.20
20422;DHT22;10370;53.102;18.034;2023-06-10T15:59:30;24.20;55.00
20422;DHT22;10370;53.102;18.034;2023-06-10T16:04:56;24.00;53.40
20422;DHT22;10370;53.102;18.034;2023-06-10T16:10:18;23.80;52.50
20422;DHT22;10370;53.102;18.034;2023-06-10T16:15:41;23.80;52.90
20422;DHT22;10370;53.102;18.034;2023-06-10T16:21:03;23.70;53.70
20422;DHT22;10370;53.102;18.034;2023-06-10T16:26:26;23.70;52.90
20422;DHT22;10370;53.102;18.034;2023-06-10T16:31:49;23.60;51.30
20422;DHT22;10370;53.102;18.034;2023-06-10T16:37:12;23.60;50.30
20422;DHT22;10370;53.102;18.034;2023-06-10T16:42:34;23.50;52.20
20422;DHT22;10370;53.102;18.034;2023-06-10T16:47:57;23.40;51.90
20422;DHT22;10370;53.102;18.034;2023-06-10T16:53:20;23.40;51.60
20422;DHT22;10370;53.102;18.034;2023-06-10T16:58:42;23.30;51.90
20422;DHT22;10370;53.102;18.034;2023-06-10T17:04:05;23.20;51.70
20422;DHT22;10370;53.102;18.034;2023-06-10T17:09:27;23.10;56.30
20422;DHT22;10370;53.102;18.034;2023-06-10T17:14:50;22.90;62.60
20422;DHT22;10370;53.102;18.034;2023-06-10T17:20:12;22.60;65.40
20422;DHT22;10370;53.102;18.034;2023-06-10T17:25:35;22.60;67.80
20422;DHT22;10370;53.102;18.034;2023-06-10T17:30:58;22.30;69.00
20422;DHT22;10370;53.102;18.034;2023-06-10T17:36:21;22.30;70.40
20422;DHT22;10370;53.102;18.034;2023-06-10T17:41:43;22.20;71.20
20422;DHT22;10370;53.102;18.034;2023-06-10T17:47:06;22.10;71.60
20422;DHT22;10370;53.102;18.034;2023-06-10T17:52:29;22.10;70.70
20422;DHT22;10370;53.102;18.034;2023-06-10T17:57:51;21.90;70.60
20422;DHT22;10370;53.102;18.034;2023-06-10T18:03:16;21.70;71.20
20422;DHT22;10370;53.102;18.034;2023-06-10T18:08:46;21.70;71.50
20422;DHT22;10370;53.102;18.034;2023-06-10T18:14:09;21.70;72.00
20422;DHT22;10370;53.102;18.034;2023-06-10T18:19:32;21.50;71.80
20422;DHT22;10370;53.102;18.034;2023-06-10T18:24:54;21.40;72.30
20422;DHT22;10370;53.102;18.034;2023-06-10T18:30:17;21.30;73.70
20422;DHT22;10370;53.102;18.034;2023-06-10T18:35:39;21.00;74.10
20422;DHT22;10370;53.102;18.034;2023-06-10T18:41:02;20.90;74.90
20422;DHT22;10370;53.102;18.034;2023-06-10T18:46:25;20.70;75.30
20422;DHT22;10370;53.102;18.034;2023-06-10T18:51:48;20.50;76.20
20422;DHT22;10370;53.102;18.034;2023-06-10T18:57:10;20.30;76.50
20422;DHT22;10370;53.102;18.034;2023-06-10T19:02:35;20.20;77.00
20422;DHT22;10370;53.102;18.034;2023-06-10T19:07:58;20.00;77.80
20422;DHT22;10370;53.102;18.034;2023-06-10T19:13:22;19.90;78.00
20422;DHT22;10370;53.102;18.034;2023-06-10T19:18:47;19.70;78.70
20422;DHT22;10370;53.102;18.034;2023-06-10T19:24:10;19.60;79.30
20422;DHT22;10370;53.102;18.034;2023-06-10T19:29:33;19.50;79.80
20422;DHT22;10370;53.102;18.034;2023-06-10T19:34:55;19.40;80.40
20422;DHT22;10370;53.102;18.034;2023-06-10T19:40:18;19.30;82.20
20422;DHT22;10370;53.102;18.034;2023-06-10T19:45:41;19.10;82.30
20422;DHT22;10370;53.102;18.034;2023-06-10T19:51:03;19.00;83.10
20422;DHT22;10370;53.102;18.034;2023-06-10T19:56:26;18.90;83.60
20422;DHT22;10370;53.102;18.034;2023-06-10T20:01:51;18.90;84.20
20422;DHT22;10370;53.102;18.034;2023-06-10T20:07:14;18.70;85.20
20422;DHT22;10370;53.102;18.034;2023-06-10T20:12:36;18.60;86.10
20422;DHT22;10370;53.102;18.034;2023-06-10T20:17:59;18.40;86.80
20422;DHT22;10370;53.102;18.034;2023-06-10T20:23:23;18.30;87.50
20422;DHT22;10370;53.102;18.034;2023-06-10T20:28:46;18.30;88.00
20422;DHT22;10370;53.102;18.034;2023-06-10T20:34:09;18.30;88.60
20422;DHT22;10370;53.102;18.034;2023-06-10T20:39:32;18.10;89.60
